KOW860 KORL-KOPF
Flight info
| Callsign | KOW860 |
|---|---|
| Flight time | N/A |
| Altitude | 33000 |
| Route | NYTES2 NYTES DDANY JIPOD CUUDA3 |
| Aircraft | C750/M-SBDE3FGHRWXY/S |
Departure
| Time | N/A |
|---|---|
| Airport | Orlando Executive Airport (KORL) |
Arrival
| Time | 2026-05-05 01:23 |
|---|---|
| Airport | Miami-Opa Locka Executive Airport (KOPF) |
| Time | Latitude | Longitude | Altitude | Speed | Heading |
|---|---|---|---|---|---|
| 2026-05-05 00:36 | 28.77020 | -80.97408 | 1358 ft | 188 kts | 45° |
| 2026-05-05 00:37 | 28.77917 | -80.96341 | 1381 ft | 184 kts | 49° |
| 2026-05-05 00:37 | 28.78782 | -80.95327 | 1498 ft | 178 kts | 46° |
| 2026-05-05 00:37 | 28.79537 | -80.94252 | 1521 ft | 169 kts | 68° |
| 2026-05-05 00:37 | 28.79717 | -80.92976 | 1859 ft | 161 kts | 84° |
| 2026-05-05 00:38 | 28.79820 | -80.91670 | 2400 ft | 175 kts | 84° |
| 2026-05-05 00:38 | 28.79946 | -80.90171 | 2893 ft | 207 kts | 84° |
| 2026-05-05 00:38 | 28.80200 | -80.88478 | 3521 ft | 227 kts | 79° |
| 2026-05-05 00:38 | 28.80466 | -80.86636 | 4333 ft | 239 kts | 80° |
| 2026-05-05 00:39 | 28.80698 | -80.84756 | 5017 ft | 240 kts | 81° |
| 2026-05-05 00:39 | 28.80892 | -80.82797 | 5129 ft | 256 kts | 83° |
| 2026-05-05 00:39 | 28.81081 | -80.80738 | 5393 ft | 263 kts | 82° |
| 2026-05-05 00:39 | 28.81304 | -80.78611 | 5152 ft | 285 kts | 82° |
| 2026-05-05 00:40 | 28.81518 | -80.76472 | 5217 ft | 255 kts | 82° |
| 2026-05-05 00:40 | 28.81849 | -80.74575 | 5201 ft | 237 kts | 78° |
| 2026-05-05 00:40 | 28.82060 | -80.72743 | 5178 ft | 230 kts | 82° |
| 2026-05-05 00:40 | 28.82238 | -80.70932 | 5146 ft | 234 kts | 82° |
| 2026-05-05 00:41 | 28.82432 | -80.68984 | 5185 ft | 262 kts | 82° |
| 2026-05-05 00:41 | 28.82656 | -80.66835 | 5191 ft | 277 kts | 82° |
| 2026-05-05 00:41 | 28.82889 | -80.64644 | 5025 ft | 278 kts | 82° |
| 2026-05-05 00:41 | 28.83022 | -80.62505 | 4940 ft | 264 kts | 95° |
| 2026-05-05 00:42 | 28.82304 | -80.60668 | 4856 ft | 252 kts | 130° |
| 2026-05-05 00:42 | 28.80964 | -80.59287 | 4937 ft | 275 kts | 140° |
| 2026-05-05 00:42 | 28.79336 | -80.58165 | 5737 ft | 274 kts | 164° |
| 2026-05-05 00:42 | 28.77472 | -80.58174 | 6664 ft | 268 kts | 193° |
| 2026-05-05 00:43 | 28.75685 | -80.58785 | 7565 ft | 270 kts | 198° |
| 2026-05-05 00:43 | 28.73835 | -80.59289 | 8474 ft | 277 kts | 191° |
| 2026-05-05 00:43 | 28.71902 | -80.59557 | 9377 ft | 282 kts | 188° |
| 2026-05-05 00:43 | 28.69929 | -80.59796 | 10158 ft | 288 kts | 189° |
| 2026-05-05 00:44 | 28.67864 | -80.60121 | 10380 ft | 312 kts | 191° |
| 2026-05-05 00:44 | 28.65629 | -80.60494 | 10398 ft | 338 kts | 190° |
| 2026-05-05 00:44 | 28.63233 | -80.60859 | 10601 ft | 352 kts | 189° |
| 2026-05-05 00:44 | 28.60805 | -80.61212 | 11186 ft | 353 kts | 189° |
| 2026-05-05 00:45 | 28.58386 | -80.61582 | 11692 ft | 356 kts | 189° |
| 2026-05-05 00:45 | 28.55921 | -80.61968 | 12209 ft | 359 kts | 189° |
| 2026-05-05 00:45 | 28.53438 | -80.62348 | 12719 ft | 362 kts | 189° |
| 2026-05-05 00:45 | 28.50931 | -80.62727 | 13225 ft | 365 kts | 189° |
| 2026-05-05 00:46 | 28.48406 | -80.63112 | 13725 ft | 367 kts | 189° |
| 2026-05-05 00:46 | 28.45867 | -80.63501 | 14189 ft | 370 kts | 189° |
| 2026-05-05 00:46 | 28.43303 | -80.63893 | 14616 ft | 372 kts | 189° |
| 2026-05-05 00:46 | 28.40727 | -80.64284 | 15039 ft | 374 kts | 190° |
| 2026-05-05 00:47 | 28.38142 | -80.64678 | 15466 ft | 376 kts | 190° |
| 2026-05-05 00:47 | 28.35544 | -80.65074 | 15892 ft | 378 kts | 191° |
| 2026-05-05 00:47 | 28.32923 | -80.65473 | 16319 ft | 380 kts | 191° |
| 2026-05-05 00:47 | 28.30294 | -80.65873 | 16760 ft | 382 kts | 191° |
| 2026-05-05 00:48 | 28.27614 | -80.65990 | 17084 ft | 392 kts | 179° |
| 2026-05-05 00:48 | 28.24930 | -80.65340 | 17545 ft | 399 kts | 166° |
| 2026-05-05 00:48 | 28.22407 | -80.63943 | 17964 ft | 409 kts | 151° |
| 2026-05-05 00:48 | 28.20217 | -80.61830 | 18363 ft | 420 kts | 136° |
| 2026-05-05 00:49 | 28.18536 | -80.59090 | 18732 ft | 428 kts | 120° |
| 2026-05-05 00:49 | 28.17393 | -80.55953 | 19111 ft | 432 kts | 112° |
| 2026-05-05 00:49 | 28.16348 | -80.52744 | 19512 ft | 435 kts | 112° |
| 2026-05-05 00:49 | 28.15297 | -80.49515 | 19933 ft | 438 kts | 112° |
| 2026-05-05 00:50 | 28.14217 | -80.46279 | 20333 ft | 441 kts | 112° |
| 2026-05-05 00:50 | 28.13137 | -80.43052 | 20737 ft | 445 kts | 112° |
| 2026-05-05 00:50 | 28.12019 | -80.39774 | 21034 ft | 449 kts | 115° |
| 2026-05-05 00:50 | 28.10466 | -80.36672 | 21035 ft | 458 kts | 127° |
| 2026-05-05 00:51 | 28.08422 | -80.33872 | 21035 ft | 464 kts | 137° |
| 2026-05-05 00:51 | 28.05946 | -80.31504 | 21034 ft | 468 kts | 148° |
| 2026-05-05 00:51 | 28.03122 | -80.29666 | 21043 ft | 470 kts | 159° |
| 2026-05-05 00:51 | 28.00065 | -80.28364 | 21055 ft | 471 kts | 166° |
| 2026-05-05 00:52 | 27.96947 | -80.27157 | 21060 ft | 474 kts | 165° |
| 2026-05-05 00:52 | 27.93855 | -80.25939 | 21056 ft | 467 kts | 165° |
| 2026-05-05 00:52 | 27.90812 | -80.24740 | 21053 ft | 460 kts | 165° |
| 2026-05-05 00:52 | 27.87797 | -80.23570 | 21048 ft | 454 kts | 166° |
| 2026-05-05 00:53 | 27.84818 | -80.22417 | 21042 ft | 451 kts | 166° |
| 2026-05-05 00:53 | 27.81828 | -80.21252 | 21040 ft | 458 kts | 166° |
| 2026-05-05 00:53 | 27.78787 | -80.20068 | 21044 ft | 464 kts | 165° |
| 2026-05-05 00:53 | 27.75745 | -80.18878 | 21047 ft | 461 kts | 165° |
| 2026-05-05 00:54 | 27.72691 | -80.17692 | 21050 ft | 468 kts | 166° |
| 2026-05-05 00:54 | 27.69590 | -80.16492 | 21046 ft | 474 kts | 166° |
| 2026-05-05 00:54 | 27.66455 | -80.15274 | 21051 ft | 479 kts | 166° |
| 2026-05-05 00:54 | 27.63287 | -80.14040 | 21054 ft | 484 kts | 165° |
| 2026-05-05 00:55 | 27.60106 | -80.12749 | 21055 ft | 485 kts | 164° |
| 2026-05-05 00:55 | 27.56977 | -80.11447 | 21052 ft | 474 kts | 165° |
| 2026-05-05 00:55 | 27.53912 | -80.10194 | 21044 ft | 464 kts | 165° |
| 2026-05-05 00:55 | 27.50904 | -80.08965 | 21035 ft | 456 kts | 165° |
| 2026-05-05 00:56 | 27.47940 | -80.07741 | 21035 ft | 453 kts | 165° |
| 2026-05-05 00:56 | 27.44952 | -80.06512 | 21035 ft | 462 kts | 165° |
| 2026-05-05 00:56 | 27.41908 | -80.05263 | 21040 ft | 469 kts | 165° |
| 2026-05-05 00:56 | 27.38822 | -80.04000 | 21047 ft | 473 kts | 165° |
| 2026-05-05 00:57 | 27.35734 | -80.03000 | 21034 ft | 463 kts | 170° |
| 2026-05-05 00:57 | 27.32642 | -80.02073 | 21034 ft | 457 kts | 169° |
| 2026-05-05 00:57 | 27.29590 | -80.01128 | 21036 ft | 453 kts | 169° |
| 2026-05-05 00:57 | 27.26569 | -80.00191 | 21036 ft | 449 kts | 169° |
| 2026-05-05 00:58 | 27.23589 | -79.99178 | 21040 ft | 447 kts | 167° |
| 2026-05-05 00:58 | 27.20698 | -79.98122 | 21037 ft | 425 kts | 167° |
| 2026-05-05 00:58 | 27.17961 | -79.97116 | 21031 ft | 402 kts | 167° |
| 2026-05-05 00:58 | 27.15300 | -79.96169 | 21037 ft | 407 kts | 168° |
| 2026-05-05 00:59 | 27.12570 | -79.95207 | 21037 ft | 414 kts | 168° |
| 2026-05-05 00:59 | 27.09823 | -79.94208 | 21040 ft | 415 kts | 168° |
| 2026-05-05 00:59 | 27.07075 | -79.93201 | 21042 ft | 415 kts | 167° |
| 2026-05-05 00:59 | 27.04347 | -79.92109 | 21041 ft | 416 kts | 166° |
| 2026-05-05 01:00 | 27.01620 | -79.91008 | 20850 ft | 417 kts | 166° |
| 2026-05-05 01:00 | 26.98933 | -79.89920 | 20324 ft | 404 kts | 166° |
| 2026-05-05 01:00 | 26.96326 | -79.88865 | 19811 ft | 393 kts | 166° |
| 2026-05-05 01:00 | 26.93785 | -79.87844 | 19304 ft | 383 kts | 166° |
| 2026-05-05 01:01 | 26.91288 | -79.86842 | 18813 ft | 381 kts | 166° |
| 2026-05-05 01:01 | 26.88810 | -79.85843 | 18314 ft | 374 kts | 166° |
| 2026-05-05 01:01 | 26.86385 | -79.84863 | 17783 ft | 366 kts | 166° |
| 2026-05-05 01:01 | 26.84014 | -79.83909 | 17309 ft | 358 kts | 166° |
| 2026-05-05 01:02 | 26.81682 | -79.82974 | 16841 ft | 355 kts | 165° |
| 2026-05-05 01:02 | 26.79359 | -79.82043 | 16372 ft | 354 kts | 165° |
| 2026-05-05 01:02 | 26.77041 | -79.81111 | 15913 ft | 353 kts | 165° |
| 2026-05-05 01:02 | 26.74772 | -79.80197 | 15456 ft | 349 kts | 164° |
| 2026-05-05 01:03 | 26.72506 | -79.79288 | 14994 ft | 343 kts | 165° |
| 2026-05-05 01:03 | 26.70215 | -79.78780 | 14501 ft | 331 kts | 182° |
| 2026-05-05 01:03 | 26.67984 | -79.79121 | 14068 ft | 320 kts | 199° |
| 2026-05-05 01:03 | 26.65918 | -79.79952 | 13675 ft | 313 kts | 203° |
| 2026-05-05 01:04 | 26.63881 | -79.80794 | 13248 ft | 310 kts | 202° |
| 2026-05-05 01:04 | 26.59867 | -79.82422 | 12434 ft | 304 kts | 202° |
| 2026-05-05 01:04 | 26.57888 | -79.83230 | 12032 ft | 301 kts | 202° |
| 2026-05-05 01:05 | 26.55925 | -79.84031 | 11635 ft | 299 kts | 202° |
| 2026-05-05 01:05 | 26.54018 | -79.84923 | 11240 ft | 295 kts | 206° |
| 2026-05-05 01:05 | 26.52130 | -79.85806 | 11006 ft | 289 kts | 205° |
| 2026-05-05 01:05 | 26.50317 | -79.86630 | 11005 ft | 274 kts | 205° |
| 2026-05-05 01:06 | 26.48599 | -79.87436 | 11005 ft | 263 kts | 206° |
| 2026-05-05 01:06 | 26.46938 | -79.88227 | 11009 ft | 258 kts | 206° |
| 2026-05-05 01:06 | 26.45274 | -79.89011 | 10914 ft | 264 kts | 205° |
| 2026-05-05 01:06 | 26.43571 | -79.89809 | 10482 ft | 266 kts | 205° |
| 2026-05-05 01:07 | 26.41866 | -79.90606 | 10060 ft | 266 kts | 205° |
| 2026-05-05 01:07 | 26.40164 | -79.91405 | 9614 ft | 265 kts | 205° |
| 2026-05-05 01:07 | 26.38467 | -79.92209 | 9157 ft | 264 kts | 205° |
| 2026-05-05 01:07 | 26.36872 | -79.93202 | 8693 ft | 262 kts | 212° |
| 2026-05-05 01:08 | 26.35297 | -79.94227 | 8256 ft | 262 kts | 211° |
| 2026-05-05 01:08 | 26.33726 | -79.95229 | 7975 ft | 255 kts | 211° |
| 2026-05-05 01:08 | 26.32175 | -79.96220 | 7459 ft | 259 kts | 210° |
| 2026-05-05 01:08 | 26.30604 | -79.97231 | 6937 ft | 261 kts | 211° |
| 2026-05-05 01:09 | 26.29034 | -79.98237 | 6417 ft | 259 kts | 210° |
| 2026-05-05 01:09 | 26.27477 | -79.99238 | 6008 ft | 253 kts | 210° |
| 2026-05-05 01:09 | 26.26027 | -80.00168 | 6013 ft | 237 kts | 210° |
| 2026-05-05 01:09 | 26.24608 | -80.01080 | 6012 ft | 233 kts | 210° |
| 2026-05-05 01:10 | 26.23218 | -80.01974 | 6013 ft | 229 kts | 210° |
| 2026-05-05 01:10 | 26.21774 | -80.02902 | 6025 ft | 250 kts | 210° |
| 2026-05-05 01:10 | 26.20245 | -80.03882 | 6028 ft | 256 kts | 211° |
| 2026-05-05 01:10 | 26.18720 | -80.04927 | 6006 ft | 259 kts | 218° |
| 2026-05-05 01:11 | 26.17670 | -80.06544 | 5994 ft | 260 kts | 246° |
| 2026-05-05 01:11 | 26.17068 | -80.08442 | 6038 ft | 261 kts | 252° |
| 2026-05-05 01:11 | 26.16511 | -80.10379 | 6019 ft | 262 kts | 252° |
| 2026-05-05 01:11 | 26.15946 | -80.12272 | 6015 ft | 253 kts | 251° |
| 2026-05-05 01:12 | 26.15386 | -80.14102 | 6016 ft | 246 kts | 251° |
| 2026-05-05 01:12 | 26.15000 | -80.15923 | 5960 ft | 240 kts | 267° |
| 2026-05-05 01:12 | 26.15022 | -80.17745 | 6001 ft | 232 kts | 270° |
| 2026-05-05 01:12 | 26.15045 | -80.19524 | 6001 ft | 228 kts | 269° |
| 2026-05-05 01:13 | 26.15048 | -80.21321 | 5632 ft | 238 kts | 269° |
| 2026-05-05 01:13 | 26.15051 | -80.23201 | 5198 ft | 248 kts | 270° |
| 2026-05-05 01:13 | 26.15057 | -80.24485 | 4917 ft | 253 kts | 270° |
| 2026-05-05 01:13 | 26.15067 | -80.26474 | 4482 ft | 262 kts | 270° |
| 2026-05-05 01:14 | 26.15076 | -80.28526 | 4045 ft | 266 kts | 270° |
| 2026-05-05 01:14 | 26.15085 | -80.30587 | 3615 ft | 267 kts | 270° |
| 2026-05-05 01:14 | 26.15093 | -80.32649 | 3176 ft | 267 kts | 270° |
| 2026-05-05 01:14 | 26.15099 | -80.34716 | 2746 ft | 267 kts | 270° |
| 2026-05-05 01:15 | 26.15002 | -80.36749 | 2231 ft | 261 kts | 257° |
| 2026-05-05 01:15 | 26.14060 | -80.38410 | 1769 ft | 251 kts | 218° |
| 2026-05-05 01:15 | 26.12638 | -80.39271 | 1843 ft | 214 kts | 196° |
| 2026-05-05 01:15 | 26.11288 | -80.39721 | 1954 ft | 195 kts | 192° |
| 2026-05-05 01:16 | 26.10037 | -80.40187 | 1988 ft | 186 kts | 195° |
| 2026-05-05 01:16 | 26.08841 | -80.40681 | 1992 ft | 181 kts | 197° |
| 2026-05-05 01:16 | 26.07672 | -80.41162 | 1995 ft | 178 kts | 196° |
| 2026-05-05 01:16 | 26.06521 | -80.41631 | 1993 ft | 175 kts | 195° |
| 2026-05-05 01:17 | 26.05387 | -80.42093 | 1994 ft | 173 kts | 195° |
| 2026-05-05 01:17 | 26.04256 | -80.42553 | 1985 ft | 172 kts | 195° |
| 2026-05-05 01:17 | 26.03140 | -80.43008 | 1991 ft | 170 kts | 195° |
| 2026-05-05 01:17 | 26.02048 | -80.43452 | 1990 ft | 168 kts | 195° |
| 2026-05-05 01:18 | 26.00938 | -80.43784 | 1969 ft | 162 kts | 178° |
| 2026-05-05 01:18 | 25.99897 | -80.43521 | 1986 ft | 149 kts | 147° |
| 2026-05-05 01:18 | 25.99100 | -80.42834 | 2009 ft | 145 kts | 136° |
| 2026-05-05 01:18 | 25.98449 | -80.41997 | 2007 ft | 144 kts | 118° |
| 2026-05-05 01:19 | 25.97894 | -80.41056 | 2019 ft | 147 kts | 119° |
| 2026-05-05 01:19 | 25.97335 | -80.40085 | 2019 ft | 151 kts | 118° |
| 2026-05-05 01:19 | 25.96778 | -80.39087 | 2009 ft | 150 kts | 118° |
| 2026-05-05 01:19 | 25.96238 | -80.38124 | 1940 ft | 147 kts | 118° |
| 2026-05-05 01:20 | 25.95719 | -80.37199 | 1753 ft | 136 kts | 117° |
| 2026-05-05 01:20 | 25.95214 | -80.36294 | 1575 ft | 138 kts | 117° |
| 2026-05-05 01:20 | 25.94718 | -80.35410 | 1396 ft | 132 kts | 117° |
| 2026-05-05 01:20 | 25.94237 | -80.34551 | 1231 ft | 130 kts | 117° |
| 2026-05-05 01:21 | 25.93760 | -80.33699 | 1059 ft | 130 kts | 118° |
| 2026-05-05 01:21 | 25.93284 | -80.32847 | 895 ft | 129 kts | 118° |
| 2026-05-05 01:21 | 25.92809 | -80.31999 | 738 ft | 130 kts | 118° |
| 2026-05-05 01:21 | 25.92328 | -80.31136 | 539 ft | 133 kts | 117° |
| 2026-05-05 01:22 | 25.91844 | -80.30273 | 313 ft | 127 kts | 118° |
| 2026-05-05 01:22 | 25.91378 | -80.29446 | 164 ft | 128 kts | 119° |
| 2026-05-05 01:22 | 25.90910 | -80.28610 | 30 ft | 128 kts | 120° |
| 2026-05-05 01:22 | 25.90494 | -80.27861 | 20 ft | 97 kts | 121° |
| 2026-05-05 01:23 | 25.90275 | -80.27472 | 13 ft | 42 kts | 122° |
| 2026-05-05 01:23 | 25.90158 | -80.27269 | 14 ft | 13 kts | 121° |
| 2026-05-05 01:23 | 25.90139 | -80.27206 | 15 ft | 11 kts | 99° |
| 2026-05-05 01:23 | 25.90181 | -80.27147 | 14 ft | 10 kts | 25° |
| 2026-05-05 01:24 | 25.90192 | -80.27088 | 14 ft | 9 kts | 83° |
| 2026-05-05 01:24 | 25.90202 | -80.27061 | 14 ft | 0 kts | 59° |